createdAt,value
2022-08-14T00:01:11.387Z,76.75
2022-08-14T00:04:34.794Z,76.49
2022-08-14T00:07:42.087Z,76.12
2022-08-14T00:10:51.352Z,76.47
2022-08-14T00:13:55.544Z,76.53
2022-08-14T00:16:58.577Z,76.90
2022-08-14T00:20:04.553Z,77.34
2022-08-14T00:23:14.612Z,77.46
2022-08-14T00:26:21.913Z,77.22
2022-08-14T00:29:27.228Z,77.10
2022-08-14T00:33:02.034Z,77.37
2022-08-14T00:36:36.246Z,77.74
2022-08-14T00:39:18.122Z,78.17
2022-08-14T00:42:55.213Z,77.85
2022-08-14T00:45:51.603Z,78.78
2022-08-14T00:48:57.840Z,79.61
2022-08-14T00:52:00.537Z,79.11
2022-08-14T00:55:04.500Z,79.54
2022-08-14T00:58:27.794Z,79.65
2022-08-14T01:01:36.802Z,79.70
2022-08-14T01:04:53.895Z,80.36
2022-08-14T01:08:00.888Z,80.00
2022-08-14T01:11:06.220Z,80.01
2022-08-14T01:14:25.699Z,79.85
2022-08-14T01:17:51.792Z,80.06
2022-08-14T01:21:06.429Z,79.98
2022-08-14T01:24:11.015Z,80.55
2022-08-14T01:27:20.516Z,81.67
2022-08-14T01:30:27.412Z,81.85
2022-08-14T01:33:30.240Z,82.45
2022-08-14T01:36:37.979Z,82.87
2022-08-14T01:39:42.157Z,82.84
2022-08-14T01:42:44.772Z,83.53
2022-08-14T01:45:57.387Z,83.89
2022-08-14T01:49:09.943Z,84.06
2022-08-14T01:52:33.631Z,84.46
2022-08-14T01:55:36.220Z,85.60
2022-08-14T01:58:57.609Z,86.02
2022-08-14T02:02:03.974Z,86.23
2022-08-14T02:05:08.241Z,86.40
2022-08-14T02:08:10.761Z,87.56
2022-08-14T02:11:22.313Z,88.19
2022-08-14T02:14:30.929Z,88.66
2022-08-14T02:17:34.084Z,88.50
2022-08-14T02:20:36.747Z,88.04
2022-08-14T02:23:40.625Z,88.51
2022-08-14T02:28:19.052Z,88.50
2022-08-14T02:30:11.759Z,88.86
2022-08-14T02:33:16.192Z,88.49
2022-08-14T02:37:03.902Z,88.91
2022-08-14T02:39:43.022Z,89.39
2022-08-14T02:42:55.039Z,89.81
2022-08-14T02:46:00.414Z,89.91
2022-08-14T02:49:06.141Z,90.68
2022-08-14T02:52:56.495Z,91.16
2022-08-14T02:55:33.062Z,91.05
2022-08-14T02:58:38.638Z,90.79
2022-08-14T03:01:50.508Z,91.33
2022-08-14T03:04:56.791Z,91.60
2022-08-14T03:08:07.896Z,91.26
2022-08-14T03:11:11.745Z,91.50
2022-08-14T03:14:15.531Z,92.20
2022-08-14T03:17:20.300Z,92.47
2022-08-14T03:20:26.133Z,92.78
2022-08-14T03:23:28.746Z,92.91
2022-08-14T03:26:31.885Z,93.27
2022-08-14T03:29:34.186Z,93.79
2022-08-14T03:32:38.828Z,94.13
2022-08-14T03:35:59.787Z,93.93
2022-08-14T03:39:12.415Z,93.01
2022-08-14T03:42:25.229Z,92.53
2022-08-14T03:45:40.553Z,92.28
2022-08-14T03:48:54.166Z,92.38
2022-08-14T03:51:58.315Z,92.97
2022-08-14T03:55:06.544Z,92.28
2022-08-14T03:58:10.282Z,91.97
2022-08-14T04:01:16.421Z,92.01
2022-08-14T04:04:19.187Z,92.04
2022-08-14T04:07:22.480Z,92.10
2022-08-14T04:10:32.202Z,91.87
2022-08-14T04:13:36.543Z,91.67
2022-08-14T04:16:48.046Z,91.95
2022-08-14T04:19:50.674Z,91.68
2022-08-14T04:22:55.589Z,91.61
2022-08-14T04:25:58.876Z,91.44
2022-08-14T04:29:13.919Z,91.76
2022-08-14T04:33:10.698Z,91.90
2022-08-14T04:35:55.473Z,91.77
2022-08-14T04:39:17.744Z,90.98
2022-08-14T04:42:39.596Z,90.69
2022-08-14T04:45:50.991Z,89.95
2022-08-14T04:48:59.670Z,89.92
2022-08-14T04:52:19.104Z,90.68
2022-08-14T04:55:27.795Z,90.75
2022-08-14T04:58:33.030Z,89.83
2022-08-14T05:01:39.880Z,89.66
2022-08-14T05:04:45.515Z,89.66
2022-08-14T05:08:32.181Z,88.20
2022-08-14T05:11:36.748Z,87.65
2022-08-14T05:14:53.685Z,85.82
2022-08-14T05:18:03.581Z,84.02
2022-08-14T05:21:59.612Z,83.49
2022-08-14T05:24:43.778Z,82.24
2022-08-14T05:27:46.442Z,80.96
2022-08-14T05:30:49.918Z,78.40
2022-08-14T05:33:54.951Z,77.27
2022-08-14T05:37:02.970Z,75.46
2022-08-14T05:40:09.849Z,74.78
2022-08-14T05:43:12.309Z,74.57
2022-08-14T05:46:18.613Z,74.55
2022-08-14T05:49:23.163Z,73.90
2022-08-14T05:52:38.942Z,73.00
2022-08-14T05:55:42.739Z,72.42
2022-08-14T05:58:47.882Z,70.58
2022-08-14T06:01:50.519Z,69.45
2022-08-14T06:04:53.660Z,69.40
2022-08-14T06:07:57.365Z,68.17
2022-08-14T06:11:03.581Z,66.13
2022-08-14T06:14:12.321Z,65.52
2022-08-14T06:17:25.967Z,64.70
2022-08-14T06:20:30.130Z,64.18
2022-08-14T06:23:33.117Z,63.76
2022-08-14T06:26:35.523Z,61.50
2022-08-14T06:29:40.260Z,61.93
2022-08-14T06:32:42.776Z,59.88
2022-08-14T06:35:46.775Z,59.05
2022-08-14T06:38:51.382Z,57.91
2022-08-14T06:41:57.649Z,56.51
2022-08-14T06:45:04.026Z,54.94
2022-08-14T06:48:18.226Z,51.49
2022-08-14T06:51:24.209Z,42.23
2022-08-14T06:54:31.257Z,31.95
2022-08-14T06:57:38.923Z,27.70
2022-08-14T07:01:02.383Z,24.42
2022-08-14T07:04:24.648Z,21.47
2022-08-14T07:07:35.295Z,19.97
2022-08-14T07:10:38.704Z,18.73
2022-08-14T07:13:41.304Z,17.77
2022-08-14T07:16:44.561Z,17.13
2022-08-14T07:19:47.237Z,16.60
2022-08-14T07:22:59.769Z,16.27
2022-08-14T07:26:07.595Z,18.00
2022-08-14T07:29:12.580Z,20.41
2022-08-14T07:32:22.067Z,19.19
2022-08-14T07:35:24.737Z,19.01
2022-08-14T07:38:37.867Z,18.50
2022-08-14T07:41:42.573Z,18.06
2022-08-14T07:44:46.250Z,16.61
2022-08-14T07:47:49.180Z,15.92
2022-08-14T07:50:51.913Z,16.23
2022-08-14T07:53:57.099Z,15.02
2022-08-14T07:57:06.539Z,15.73
2022-08-14T08:00:31.231Z,16.17
2022-08-14T08:03:35.004Z,17.33
2022-08-14T08:06:38.373Z,20.11
2022-08-14T08:09:45.879Z,25.39
2022-08-14T08:12:49.136Z,27.36
2022-08-14T08:15:59.378Z,23.89
2022-08-14T08:19:12.793Z,24.80
2022-08-14T08:22:17.007Z,27.61
2022-08-14T08:25:19.698Z,26.49
2022-08-14T08:28:26.471Z,22.22
2022-08-14T08:31:32.952Z,20.15
2022-08-14T08:34:48.505Z,19.62
2022-08-14T08:37:53.683Z,19.03
2022-08-14T08:41:04.899Z,19.42
2022-08-14T08:44:17.306Z,18.95
2022-08-14T08:47:39.360Z,18.38
2022-08-14T08:53:43.820Z,18.12
2022-08-14T08:56:47.466Z,19.78
2022-08-14T08:59:55.032Z,21.66
2022-08-14T09:03:03.371Z,25.60
2022-08-14T09:06:53.658Z,30.86
2022-08-14T09:09:33.171Z,34.05
2022-08-14T09:12:36.628Z,34.74
2022-08-14T09:15:42.796Z,34.32
2022-08-14T09:18:45.720Z,34.32
2022-08-14T09:21:48.433Z,34.70
2022-08-14T09:24:57.611Z,34.93
2022-08-14T09:28:00.039Z,36.05
2022-08-14T09:31:08.582Z,36.35
2022-08-14T09:34:27.939Z,35.25
2022-08-14T09:37:35.008Z,35.27
2022-08-14T09:40:50.002Z,35.02
2022-08-14T09:43:58.606Z,36.04
2022-08-14T09:47:01.003Z,34.17
2022-08-14T09:50:04.115Z,33.24
2022-08-14T09:53:18.110Z,34.25
2022-08-14T09:56:30.083Z,34.35
2022-08-14T09:59:59.369Z,35.08
2022-08-14T10:03:05.454Z,34.51
2022-08-14T10:06:08.957Z,33.30
2022-08-14T10:09:16.615Z,33.75
2022-08-14T10:12:28.740Z,33.16
2022-08-14T10:15:32.757Z,30.77
2022-08-14T10:18:35.510Z,28.49
2022-08-14T10:23:11.205Z,27.53
2022-08-14T10:25:17.449Z,28.12
2022-08-14T10:28:39.470Z,28.00
2022-08-14T10:31:45.631Z,28.13
2022-08-14T10:34:52.930Z,28.32
2022-08-14T10:38:00.271Z,28.85
2022-08-14T10:41:14.368Z,29.35
2022-08-14T10:44:21.333Z,30.15
2022-08-14T10:47:39.723Z,30.00
2022-08-14T10:50:57.218Z,29.46
2022-08-14T10:54:01.881Z,28.27
2022-08-14T10:57:25.240Z,26.63
2022-08-14T11:00:35.171Z,25.91
2022-08-14T11:03:56.321Z,25.92
2022-08-14T11:06:59.465Z,26.25
2022-08-14T11:10:05.577Z,25.45
2022-08-14T11:13:10.155Z,25.47
2022-08-14T11:16:14.566Z,24.61
2022-08-14T11:19:17.962Z,24.82
2022-08-14T11:22:56.267Z,24.78
2022-08-14T11:25:53.336Z,25.43
2022-08-14T11:28:57.918Z,25.26
2022-08-14T11:32:03.345Z,24.44
2022-08-14T11:35:06.412Z,22.26
2022-08-14T11:38:12.574Z,22.69
2022-08-14T11:41:17.144Z,22.64
2022-08-14T11:44:45.469Z,22.88
2022-08-14T11:47:44.110Z,23.33
2022-08-14T11:51:12.298Z,24.06
2022-08-14T11:54:15.461Z,23.05
2022-08-14T11:57:23.028Z,23.69
2022-08-14T12:00:31.538Z,24.18
2022-08-14T12:03:51.730Z,24.69
2022-08-14T12:06:55.979Z,25.02
2022-08-14T12:09:59.422Z,25.46
2022-08-14T12:13:11.927Z,26.55
2022-08-14T12:16:20.661Z,26.28
2022-08-14T12:19:25.542Z,26.17
2022-08-14T12:22:38.246Z,26.52
2022-08-14T12:25:42.627Z,28.15
2022-08-14T12:29:00.142Z,28.35
2022-08-14T12:32:06.690Z,28.54
2022-08-14T12:35:11.731Z,29.51
2022-08-14T12:38:19.397Z,29.47
2022-08-14T12:41:27.880Z,29.76
2022-08-14T12:44:32.121Z,28.56
2022-08-14T12:47:35.206Z,28.72
2022-08-14T12:50:39.605Z,29.58
2022-08-14T12:53:44.302Z,28.93
2022-08-14T12:56:48.769Z,27.64
2022-08-14T12:59:53.361Z,27.65
2022-08-14T13:02:56.809Z,26.36
2022-08-14T13:06:00.516Z,26.53
2022-08-14T13:09:11.085Z,27.13
2022-08-14T13:12:56.646Z,26.95
2022-08-14T13:15:45.269Z,27.83
2022-08-14T13:18:58.599Z,27.33
2022-08-14T13:22:09.491Z,26.44
2022-08-14T13:25:15.705Z,26.45
2022-08-14T13:28:33.642Z,26.92
2022-08-14T13:31:39.425Z,26.70
2022-08-14T13:34:45.508Z,26.68
2022-08-14T13:37:49.768Z,27.71
2022-08-14T13:40:55.912Z,28.05
2022-08-14T13:44:00.199Z,28.11
2022-08-14T13:47:06.929Z,29.65
2022-08-14T13:50:20.451Z,30.86
2022-08-14T13:53:23.842Z,29.18
2022-08-14T13:56:36.682Z,28.70
2022-08-14T13:59:43.819Z,29.90
2022-08-14T14:02:47.736Z,29.14
2022-08-14T14:05:54.375Z,28.87
2022-08-14T14:08:59.141Z,29.53
2022-08-14T14:12:01.977Z,31.18
2022-08-14T14:15:07.586Z,31.45
2022-08-14T14:18:29.814Z,30.76
2022-08-14T14:21:36.227Z,31.09
2022-08-14T14:24:40.155Z,29.63
2022-08-14T14:27:48.709Z,29.23
2022-08-14T14:30:57.410Z,28.41
2022-08-14T14:34:07.644Z,28.31
2022-08-14T14:37:15.567Z,27.42
2022-08-14T14:40:51.427Z,27.66
2022-08-14T14:43:44.847Z,27.09
2022-08-14T14:46:50.529Z,27.93
2022-08-14T14:49:55.713Z,26.65
2022-08-14T14:53:13.225Z,26.44
2022-08-14T14:56:47.570Z,26.97
2022-08-14T14:59:38.864Z,27.87
2022-08-14T15:02:44.740Z,28.60
2022-08-14T15:05:47.992Z,28.75
2022-08-14T15:08:56.856Z,28.39
2022-08-14T15:12:00.819Z,27.89
2022-08-14T15:15:09.387Z,29.30
2022-08-14T15:18:36.312Z,29.95
2022-08-14T15:21:36.796Z,30.96
2022-08-14T15:24:41.309Z,32.02
2022-08-14T15:27:45.910Z,32.50
2022-08-14T15:30:57.841Z,32.33
2022-08-14T15:34:45.498Z,33.23
2022-08-14T15:37:55.654Z,32.52
2022-08-14T15:41:01.996Z,32.79
2022-08-14T15:44:18.808Z,32.48
2022-08-14T15:47:30.055Z,31.84
2022-08-14T15:50:33.705Z,32.32
2022-08-14T15:53:36.960Z,32.69
2022-08-14T15:56:43.331Z,32.77
2022-08-14T16:00:05.418Z,32.78
2022-08-14T16:03:16.868Z,32.70
2022-08-14T16:06:20.198Z,33.06
2022-08-14T16:09:25.785Z,36.99
2022-08-14T16:12:41.341Z,35.31
2022-08-14T16:15:53.454Z,35.07
2022-08-14T16:18:58.922Z,34.79
2022-08-14T16:22:58.410Z,37.48
2022-08-14T16:25:35.373Z,36.34
2022-08-14T16:28:39.542Z,36.32
2022-08-14T16:31:43.828Z,38.07
2022-08-14T16:34:49.233Z,37.58
2022-08-14T16:37:55.708Z,38.31
2022-08-14T16:41:17.414Z,38.94
2022-08-14T16:44:23.164Z,40.09
2022-08-14T16:47:37.849Z,41.19
2022-08-14T16:50:44.262Z,40.19
2022-08-14T16:53:48.087Z,39.80
2022-08-14T16:56:50.442Z,40.88
2022-08-14T16:59:57.590Z,39.38
2022-08-14T17:03:11.669Z,40.96
2022-08-14T17:06:36.335Z,41.66
2022-08-14T17:09:43.158Z,41.46
2022-08-14T17:12:46.481Z,41.89
2022-08-14T17:16:04.864Z,41.78
2022-08-14T17:19:17.405Z,41.99
2022-08-14T17:22:21.789Z,42.77
2022-08-14T17:25:31.351Z,42.98
2022-08-14T17:28:50.058Z,43.55
2022-08-14T17:32:02.272Z,42.68
2022-08-14T17:35:07.580Z,41.91
2022-08-14T17:38:38.908Z,41.50
2022-08-14T17:41:43.976Z,41.42
2022-08-14T17:44:48.148Z,41.80
2022-08-14T17:47:51.338Z,41.83
2022-08-14T17:51:00.178Z,42.21
2022-08-14T17:54:04.883Z,42.43
2022-08-14T17:57:13.595Z,42.71
2022-08-14T18:00:17.752Z,43.13
2022-08-14T18:03:51.254Z,43.80
2022-08-14T18:06:58.847Z,43.24
2022-08-14T18:10:51.868Z,44.14
2022-08-14T18:13:51.205Z,44.26
2022-08-14T18:16:55.942Z,45.37
2022-08-14T18:19:59.927Z,45.57
2022-08-14T18:23:06.054Z,45.73
2022-08-14T18:26:08.857Z,45.48
2022-08-14T18:29:32.891Z,46.25
2022-08-14T18:32:47.548Z,46.52
2022-08-14T18:36:46.682Z,46.83
2022-08-14T18:39:31.000Z,47.30
2022-08-14T18:42:34.950Z,47.73
2022-08-14T18:45:41.327Z,48.14
2022-08-14T18:48:51.121Z,48.76
2022-08-14T18:52:13.211Z,49.17
2022-08-14T18:55:22.291Z,49.19
2022-08-14T18:58:45.352Z,49.22
2022-08-14T19:01:55.898Z,49.44
2022-08-14T19:04:59.721Z,49.87
2022-08-14T19:08:26.524Z,50.03
2022-08-14T19:11:34.239Z,50.22
2022-08-14T19:14:44.226Z,50.65
2022-08-14T19:18:14.283Z,50.92
2022-08-14T19:21:23.651Z,51.58
2022-08-14T19:24:44.147Z,51.82
2022-08-14T19:28:07.807Z,51.80
2022-08-14T19:31:55.404Z,52.61
2022-08-14T19:34:59.939Z,52.49
2022-08-14T19:38:04.771Z,54.33
2022-08-14T19:41:15.957Z,53.95
2022-08-14T19:44:19.543Z,53.91
2022-08-14T19:47:49.983Z,54.02
2022-08-14T19:51:00.583Z,54.23
2022-08-14T19:54:13.702Z,55.12
2022-08-14T19:57:22.071Z,55.52
2022-08-14T20:00:28.270Z,56.40
2022-08-14T20:03:59.128Z,56.78
2022-08-14T20:07:04.158Z,56.85
2022-08-14T20:11:11.479Z,57.08
2022-08-14T20:13:38.625Z,57.53
2022-08-14T20:16:47.940Z,57.48
2022-08-14T20:19:52.021Z,57.55
2022-08-14T20:22:56.051Z,57.76
2022-08-14T20:25:58.666Z,58.02
2022-08-14T20:29:04.965Z,58.43
2022-08-14T20:32:14.724Z,58.73
2022-08-14T20:35:24.738Z,58.93
2022-08-14T20:38:37.855Z,59.32
2022-08-14T20:41:51.152Z,59.54
2022-08-14T20:45:16.627Z,59.79
2022-08-14T20:48:50.957Z,59.84
2022-08-14T20:51:54.617Z,59.83
2022-08-14T20:55:20.185Z,60.25
2022-08-14T20:58:38.734Z,60.78
2022-08-14T21:02:28.397Z,60.64
2022-08-14T21:05:33.720Z,60.83
2022-08-14T21:08:37.297Z,60.70
2022-08-14T21:11:43.285Z,60.99
2022-08-14T21:14:51.603Z,61.90
2022-08-14T21:17:56.370Z,61.25
2022-08-14T21:21:04.667Z,61.24
2022-08-14T21:24:39.309Z,61.13
2022-08-14T21:27:37.452Z,62.22
2022-08-14T21:30:51.269Z,61.76
2022-08-14T21:33:56.168Z,61.77
2022-08-14T21:36:59.605Z,61.86
2022-08-14T21:40:18.734Z,61.69
2022-08-14T21:43:32.203Z,60.79
2022-08-14T21:46:37.114Z,59.94
2022-08-14T21:49:46.327Z,59.13
2022-08-14T21:53:00.631Z,59.52
2022-08-14T21:56:04.005Z,59.39
2022-08-14T21:59:17.699Z,59.54
2022-08-14T22:02:32.886Z,59.83
2022-08-14T22:05:37.671Z,60.02
2022-08-14T22:08:40.755Z,60.32
2022-08-14T22:11:49.256Z,60.98
2022-08-14T22:15:00.204Z,60.56
2022-08-14T22:18:06.855Z,60.14
2022-08-14T22:21:16.427Z,60.79
2022-08-14T22:24:25.957Z,60.92
2022-08-14T22:27:55.366Z,61.51
2022-08-14T22:30:59.402Z,61.86
2022-08-14T22:34:02.593Z,62.05
2022-08-14T22:37:05.158Z,62.71
2022-08-14T22:40:54.080Z,62.87
2022-08-14T22:43:31.756Z,63.27
2022-08-14T22:46:34.136Z,63.60
2022-08-14T22:50:31.017Z,63.91
2022-08-14T22:53:02.780Z,64.34
2022-08-14T22:56:05.292Z,64.37
2022-08-14T22:59:36.899Z,64.50
2022-08-14T23:02:42.356Z,64.84
2022-08-14T23:05:52.690Z,65.16
2022-08-14T23:09:02.081Z,65.47
2022-08-14T23:12:27.423Z,65.63
2022-08-14T23:15:32.303Z,66.08
2022-08-14T23:18:35.287Z,66.11
2022-08-14T23:21:46.343Z,66.51
2022-08-14T23:24:50.973Z,67.17
2022-08-14T23:28:03.197Z,67.37
2022-08-14T23:31:09.877Z,67.73
2022-08-14T23:34:20.718Z,67.83
2022-08-14T23:37:27.135Z,68.00
2022-08-14T23:40:31.156Z,68.28
2022-08-14T23:43:35.024Z,68.62
2022-08-14T23:46:38.585Z,68.80
2022-08-14T23:49:59.972Z,69.02
2022-08-14T23:53:28.623Z,69.23
2022-08-14T23:56:37.713Z,69.56
2022-08-14T23:59:54.340Z,70.09
